Time;durP1;ratioP1;P1;durP2;ratioP2;P2;SDS_P1;SDS_P2;PMS_P1;PMS_P2;Temp;Humidity;BMP_temperature;BMP_pressure;BME280_temperature;BME280_humidity;BME280_pressure;Samples;Min_cycle;Max_cycle;Signal;HPM_P1;HPM_P2
2022/04/24 00:01:11;;;;;;;2.00;1.90;;;;;;;;;;4966925;28;20262;-60
2022/04/24 00:03:39;;;;;;;2.37;2.27;;;;;;;;;;4967158;28;20226;-60
2022/04/24 00:06:06;;;;;;;1.47;1.37;;;;;;;;;;4966604;28;20288;-60
2022/04/24 00:08:34;;;;;;;1.50;1.50;;;;;;;;;;4966432;28;20791;-57
2022/04/24 00:11:01;;;;;;;2.07;1.97;;;;;;;;;;4967176;28;20364;-59
2022/04/24 00:13:31;;;;;;;1.70;1.60;;;;;;;;;;4966575;28;20214;-61
2022/04/24 00:15:58;;;;;;;1.73;1.73;;;;;;;;;;4967180;28;20639;-61
2022/04/24 00:18:25;;;;;;;1.03;1.03;;;;;;;;;;4967438;28;20210;-61
2022/04/24 00:20:52;;;;;;;2.23;2.03;;;;;;;;;;4967239;28;20764;-60
2022/04/24 00:23:19;;;;;;;1.43;1.37;;;;;;;;;;4966084;28;20206;-60
2022/04/24 00:25:47;;;;;;;2.03;1.93;;;;;;;;;;4967189;28;20587;-60
2022/04/24 00:28:14;;;;;;;2.10;1.20;;;;;;;;;;4965817;28;20206;-60
2022/04/24 00:30:41;;;;;;;2.07;1.87;;;;;;;;;;4966858;28;20206;-60
2022/04/24 00:33:08;;;;;;;1.30;1.30;;;;;;;;;;4966223;28;20215;-60
2022/04/24 00:35:36;;;;;;;1.80;1.70;;;;;;;;;;4964649;28;20210;-60
2022/04/24 00:38:03;;;;;;;1.23;1.10;;;;;;;;;;4966643;28;20207;-60
2022/04/24 00:40:30;;;;;;;1.00;1.00;;;;;;;;;;4963235;28;20531;-60
2022/04/24 00:42:58;;;;;;;1.20;1.20;;;;;;;;;;4967006;28;20198;-60
2022/04/24 00:45:25;;;;;;;1.60;1.50;;;;;;;;;;4965815;28;20215;-60
2022/04/24 00:47:52;;;;;;;1.80;1.70;;;;;;;;;;4966848;28;20441;-60
2022/04/24 00:50:19;;;;;;;1.50;1.50;;;;;;;;;;4967135;28;20581;-60
2022/04/24 00:52:47;;;;;;;2.40;2.00;;;;;;;;;;4966335;28;20229;-60
2022/04/24 00:55:14;;;;;;;1.97;1.87;;;;;;;;;;4963876;28;20591;-60
2022/04/24 00:57:42;;;;;;;1.43;1.33;;;;;;;;;;4966504;28;20619;-60
2022/04/24 01:00:11;;;;;;;1.57;1.57;;;;;;;;;;4966743;28;20206;-61
2022/04/24 01:02:39;;;;;;;1.47;1.37;;;;;;;;;;4965797;28;20210;-60
2022/04/24 01:05:08;;;;;;;4.23;1.70;;;;;;;;;;4966110;28;20598;-60
2022/04/24 01:07:35;;;;;;;1.50;1.50;;;;;;;;;;4966945;28;20206;-60
2022/04/24 01:10:02;;;;;;;1.57;1.47;;;;;;;;;;4967094;28;20704;-60
2022/04/24 01:12:29;;;;;;;1.30;1.30;;;;;;;;;;4963309;28;20233;-60
2022/04/24 01:14:56;;;;;;;1.53;1.53;;;;;;;;;;4966829;28;20206;-60
2022/04/24 01:17:24;;;;;;;1.50;1.43;;;;;;;;;;4967189;28;20269;-61
2022/04/24 01:19:51;;;;;;;3.57;1.90;;;;;;;;;;4966378;28;20207;-58
2022/04/24 01:22:19;;;;;;;2.13;2.03;;;;;;;;;;4964557;28;20973;-61
2022/04/24 01:24:46;;;;;;;1.77;1.70;;;;;;;;;;4966096;28;20214;-60
2022/04/24 01:27:13;;;;;;;2.27;2.17;;;;;;;;;;4963509;28;20203;-60
2022/04/24 01:29:40;;;;;;;1.70;1.60;;;;;;;;;;4965795;28;20207;-60
2022/04/24 01:32:08;;;;;;;1.83;1.77;;;;;;;;;;4967771;28;20230;-59
2022/04/24 01:34:35;;;;;;;0.80;0.80;;;;;;;;;;4968451;28;20214;-60
2022/04/24 01:37:02;;;;;;;1.50;1.50;;;;;;;;;;4968479;28;20202;-61
2022/04/24 01:39:30;;;;;;;1.23;1.00;;;;;;;;;;4968497;28;20218;-59
2022/04/24 01:41:57;;;;;;;1.90;1.80;;;;;;;;;;4968204;28;20199;-60
2022/04/24 01:44:24;;;;;;;2.93;1.23;;;;;;;;;;4963470;28;20605;-59
2022/04/24 01:46:52;;;;;;;1.93;1.70;;;;;;;;;;4964592;28;20209;-60
2022/04/24 01:49:19;;;;;;;1.60;1.50;;;;;;;;;;4970021;28;20291;-60
2022/04/24 01:51:48;;;;;;;1.67;1.57;;;;;;;;;;4969924;28;20237;-60
2022/04/24 01:54:15;;;;;;;2.10;2.00;;;;;;;;;;4971520;28;20199;-60
2022/04/24 01:56:44;;;;;;;1.70;1.70;;;;;;;;;;4971886;28;20302;-60
2022/04/24 01:59:11;;;;;;;1.80;1.70;;;;;;;;;;4968735;28;20206;-60
2022/04/24 02:01:38;;;;;;;1.30;1.30;;;;;;;;;;4971729;28;20210;-60
2022/04/24 02:04:05;;;;;;;1.40;1.40;;;;;;;;;;4971182;28;20214;-60
2022/04/24 02:06:32;;;;;;;1.87;1.80;;;;;;;;;;4970547;28;20293;-60
2022/04/24 02:08:59;;;;;;;1.17;1.17;;;;;;;;;;4971735;28;20269;-60
2022/04/24 02:11:28;;;;;;;1.47;1.47;;;;;;;;;;4970923;28;20206;-60
2022/04/24 02:13:56;;;;;;;2.00;1.90;;;;;;;;;;4954701;28;20294;-60
2022/04/24 02:16:23;;;;;;;3.90;1.53;;;;;;;;;;4962218;28;20673;-60
2022/04/24 02:18:50;;;;;;;0.90;0.90;;;;;;;;;;4961512;28;20202;-59
2022/04/24 02:21:17;;;;;;;1.57;1.47;;;;;;;;;;4969928;28;20519;-60
2022/04/24 02:23:44;;;;;;;1.57;1.47;;;;;;;;;;4966664;28;20211;-60
2022/04/24 02:26:11;;;;;;;1.60;1.60;;;;;;;;;;4964850;28;20207;-60
2022/04/24 02:28:38;;;;;;;1.83;1.73;;;;;;;;;;4963049;28;20273;-60
2022/04/24 02:31:07;;;;;;;1.10;1.10;;;;;;;;;;4970865;28;20210;-60
2022/04/24 02:33:34;;;;;;;1.90;1.80;;;;;;;;;;4971429;28;20289;-60
2022/04/24 02:36:01;;;;;;;1.77;1.77;;;;;;;;;;4971092;28;20215;-60
2022/04/24 02:38:28;;;;;;;1.40;1.37;;;;;;;;;;4970988;28;20214;-60
2022/04/24 02:40:55;;;;;;;0.90;0.90;;;;;;;;;;4971431;28;20202;-60
2022/04/24 02:43:22;;;;;;;1.13;1.13;;;;;;;;;;4971141;28;20211;-59
2022/04/24 02:45:49;;;;;;;1.93;1.83;;;;;;;;;;4970583;28;20210;-60
2022/04/24 02:48:17;;;;;;;1.87;1.80;;;;;;;;;;4971577;28;20226;-60
2022/04/24 02:50:44;;;;;;;2.20;2.10;;;;;;;;;;4969673;28;20207;-60
2022/04/24 02:53:12;;;;;;;1.47;1.13;;;;;;;;;;4963485;28;20227;-60
2022/04/24 02:55:39;;;;;;;3.07;1.97;;;;;;;;;;4962993;28;20677;-60
2022/04/24 02:58:06;;;;;;;1.67;1.67;;;;;;;;;;4960056;28;20302;-60
2022/04/24 03:00:43;;;;;;;1.67;1.57;;;;;;;;;;4964634;28;20210;-60
2022/04/24 03:03:10;;;;;;;1.63;1.60;;;;;;;;;;4964658;28;20213;-60
2022/04/24 03:05:38;;;;;;;2.00;1.90;;;;;;;;;;4963071;28;20222;-60
2022/04/24 03:08:06;;;;;;;1.73;1.73;;;;;;;;;;4963802;28;20235;-60
2022/04/24 03:10:33;;;;;;;1.83;1.73;;;;;;;;;;4960788;28;20301;-60
2022/04/24 03:13:00;;;;;;;1.80;1.70;;;;;;;;;;4961233;28;20234;-60
2022/04/24 03:15:27;;;;;;;1.83;1.83;;;;;;;;;;4961486;28;20673;-60
2022/04/24 03:17:55;;;;;;;2.00;1.80;;;;;;;;;;4961872;28;20224;-60
2022/04/24 03:20:23;;;;;;;1.97;1.97;;;;;;;;;;4961575;28;20234;-60
2022/04/24 03:22:51;;;;;;;1.67;1.60;;;;;;;;;;4964405;28;20626;-60
2022/04/24 03:25:19;;;;;;;1.70;1.60;;;;;;;;;;4962932;28;20218;-60
2022/04/24 03:27:46;;;;;;;1.50;1.50;;;;;;;;;;4964159;28;20199;-60
2022/04/24 03:30:13;;;;;;;1.80;1.70;;;;;;;;;;4962972;28;20826;-60
2022/04/24 03:32:40;;;;;;;1.37;1.37;;;;;;;;;;4961333;28;20377;-60
2022/04/24 03:35:09;;;;;;;1.50;1.47;;;;;;;;;;4964426;28;20684;-60
2022/04/24 03:37:36;;;;;;;1.53;1.53;;;;;;;;;;4959960;28;20306;-61
2022/04/24 03:40:05;;;;;;;1.77;1.67;;;;;;;;;;4963882;28;20261;-60
2022/04/24 03:42:33;;;;;;;1.43;1.33;;;;;;;;;;4963196;28;20210;-60
2022/04/24 03:45:01;;;;;;;1.93;1.83;;;;;;;;;;4969549;28;20581;-60
2022/04/24 03:47:28;;;;;;;1.33;1.33;;;;;;;;;;4969432;28;20301;-60
2022/04/24 03:49:55;;;;;;;2.10;1.90;;;;;;;;;;4968584;28;20211;-60
2022/04/24 03:52:22;;;;;;;1.47;1.37;;;;;;;;;;4961404;28;20229;-60
2022/04/24 03:54:49;;;;;;;1.60;1.43;;;;;;;;;;4961355;28;20206;-60
2022/04/24 03:57:18;;;;;;;1.93;1.87;;;;;;;;;;4960872;28;20207;-60
2022/04/24 03:59:45;;;;;;;1.40;1.27;;;;;;;;;;4960424;28;20933;-60
2022/04/24 04:02:12;;;;;;;1.60;1.60;;;;;;;;;;4961600;28;20198;-60
2022/04/24 04:04:39;;;;;;;4.00;1.57;;;;;;;;;;4968104;28;20410;-60
2022/04/24 04:07:06;;;;;;;2.27;2.00;;;;;;;;;;4969043;28;20222;-61
2022/04/24 04:09:34;;;;;;;2.27;2.17;;;;;;;;;;4968591;28;20256;-61
2022/04/24 04:12:01;;;;;;;2.30;2.20;;;;;;;;;;4968493;28;20214;-59
2022/04/24 04:14:29;;;;;;;2.17;2.07;;;;;;;;;;4968730;28;20217;-59
2022/04/24 04:16:56;;;;;;;2.00;1.90;;;;;;;;;;4969560;28;20854;-60
2022/04/24 04:19:23;;;;;;;1.97;1.87;;;;;;;;;;4969265;28;20214;-60
2022/04/24 04:21:50;;;;;;;2.40;2.30;;;;;;;;;;4968992;28;20305;-60
2022/04/24 04:24:17;;;;;;;2.37;2.27;;;;;;;;;;4969539;28;20769;-60
2022/04/24 04:26:44;;;;;;;2.57;2.43;;;;;;;;;;4969628;28;20214;-61
2022/04/24 04:29:11;;;;;;;3.23;2.93;;;;;;;;;;4967053;28;20585;-60
2022/04/24 04:31:40;;;;;;;2.77;2.57;;;;;;;;;;4969025;28;20719;-60
2022/04/24 04:34:07;;;;;;;2.47;2.27;;;;;;;;;;4968761;28;20241;-60
2022/04/24 04:36:34;;;;;;;3.07;2.87;;;;;;;;;;4968974;28;20695;-61
2022/04/24 04:39:01;;;;;;;1.93;1.83;;;;;;;;;;4969155;28;20206;-60
2022/04/24 04:41:28;;;;;;;2.63;2.43;;;;;;;;;;4968458;28;20627;-60
2022/04/24 04:43:55;;;;;;;2.90;2.60;;;;;;;;;;4969008;28;20643;-60
2022/04/24 04:46:22;;;;;;;2.80;2.60;;;;;;;;;;4967241;28;20206;-60
2022/04/24 04:48:51;;;;;;;2.47;2.37;;;;;;;;;;4957412;28;20612;-60
2022/04/24 04:51:18;;;;;;;2.43;2.33;;;;;;;;;;4965800;28;20210;-61
2022/04/24 04:53:45;;;;;;;2.43;2.27;;;;;;;;;;4966255;28;20233;-60
2022/04/24 04:56:12;;;;;;;2.73;2.60;;;;;;;;;;4961077;28;20269;-60
2022/04/24 04:58:39;;;;;;;2.67;2.47;;;;;;;;;;4959050;28;20217;-60
2022/04/24 05:01:06;;;;;;;2.40;2.30;;;;;;;;;;4958207;28;20661;-60
2022/04/24 05:03:33;;;;;;;2.73;2.53;;;;;;;;;;4967805;28;20265;-60
2022/04/24 05:06:01;;;;;;;2.47;2.37;;;;;;;;;;4969288;28;20222;-60
2022/04/24 05:08:28;;;;;;;2.03;1.93;;;;;;;;;;4969090;28;20253;-60
2022/04/24 05:10:55;;;;;;;2.40;2.30;;;;;;;;;;4968958;28;20653;-60
2022/04/24 05:13:22;;;;;;;2.47;2.30;;;;;;;;;;4966790;28;20230;-60
2022/04/24 05:15:49;;;;;;;2.33;2.10;;;;;;;;;;4969352;28;20261;-61
2022/04/24 05:18:16;;;;;;;0.70;0.70;;;;;;;;;;4969061;28;20206;-57
2022/04/24 05:20:43;;;;;;;4.43;2.47;;;;;;;;;;4969816;28;20209;-57
2022/04/24 05:23:12;;;;;;;2.87;2.67;;;;;;;;;;4968908;28;20289;-60
2022/04/24 05:25:39;;;;;;;2.60;2.40;;;;;;;;;;4956662;28;20211;-60
2022/04/24 05:28:07;;;;;;;2.37;2.27;;;;;;;;;;4973104;28;20218;-60
2022/04/24 05:30:34;;;;;;;1.90;1.80;;;;;;;;;;4973328;28;20218;-60
2022/04/24 05:33:01;;;;;;;2.40;2.30;;;;;;;;;;4972533;28;20308;-60
2022/04/24 05:35:28;;;;;;;2.13;2.03;;;;;;;;;;4972916;28;20216;-61
2022/04/24 05:37:55;;;;;;;2.30;2.20;;;;;;;;;;4972608;28;20237;-60
2022/04/24 05:40:24;;;;;;;1.40;1.40;;;;;;;;;;4972591;28;20273;-60
2022/04/24 05:42:53;;;;;;;2.63;2.43;;;;;;;;;;4960759;28;20206;-61
2022/04/24 05:45:22;;;;;;;2.47;2.27;;;;;;;;;;4972412;28;20210;-60
2022/04/24 05:47:49;;;;;;;2.20;2.00;;;;;;;;;;4972684;28;20673;-60
2022/04/24 05:50:16;;;;;;;2.50;2.27;;;;;;;;;;4972830;28;20218;-61
2022/04/24 05:52:44;;;;;;;2.57;2.37;;;;;;;;;;4972909;28;20292;-60
2022/04/24 05:55:11;;;;;;;2.80;2.60;;;;;;;;;;4972438;28;20332;-60
2022/04/24 05:57:40;;;;;;;2.50;2.23;;;;;;;;;;4972002;28;20207;-60
2022/04/24 06:00:08;;;;;;;3.10;2.90;;;;;;;;;;4971007;28;20202;-60
2022/04/24 06:02:39;;;;;;;3.17;2.87;;;;;;;;;;4972308;28;20214;-61
2022/04/24 06:05:06;;;;;;;2.40;2.30;;;;;;;;;;4969107;28;20229;-63
2022/04/24 06:07:33;;;;;;;2.83;2.67;;;;;;;;;;4972036;28;20218;-60
2022/04/24 06:10:00;;;;;;;4.00;2.97;;;;;;;;;;4989071;28;20627;-60
2022/04/24 06:12:27;;;;;;;2.60;2.50;;;;;;;;;;4970153;28;20226;-61
2022/04/24 06:14:56;;;;;;;2.50;2.33;;;;;;;;;;4987440;28;20748;-58
2022/04/24 06:17:23;;;;;;;3.50;3.20;;;;;;;;;;4979365;28;20260;-59
2022/04/24 06:19:50;;;;;;;3.73;2.20;;;;;;;;;;4981057;28;20207;-59
2022/04/24 06:22:17;;;;;;;3.30;3.07;;;;;;;;;;4972817;28;20719;-60
2022/04/24 06:24:44;;;;;;;3.60;3.37;;;;;;;;;;4979447;28;20206;-60
2022/04/24 06:27:11;;;;;;;3.10;2.80;;;;;;;;;;4991921;28;20578;-60
2022/04/24 06:29:38;;;;;;;3.33;3.13;;;;;;;;;;4988868;28;20214;-61
2022/04/24 06:32:08;;;;;;;3.17;2.97;;;;;;;;;;4989613;28;20209;-60
2022/04/24 06:34:36;;;;;;;5.20;2.87;;;;;;;;;;4974227;28;20318;-60
2022/04/24 06:37:03;;;;;;;3.03;2.73;;;;;;;;;;4977128;28;20260;-60
2022/04/24 06:39:30;;;;;;;3.73;3.20;;;;;;;;;;4987562;28;20213;-61
2022/04/24 06:41:57;;;;;;;3.00;2.43;;;;;;;;;;4989906;28;20209;-61
2022/04/24 06:44:25;;;;;;;2.50;2.30;;;;;;;;;;4972370;28;20202;-60
2022/04/24 06:46:52;;;;;;;2.77;2.60;;;;;;;;;;4976081;28;20248;-60
2022/04/24 06:49:20;;;;;;;3.73;2.90;;;;;;;;;;4978119;28;20206;-60
2022/04/24 06:51:47;;;;;;;3.07;2.87;;;;;;;;;;4989529;28;20586;-61
2022/04/24 06:54:14;;;;;;;4.23;3.93;;;;;;;;;;4979845;28;20226;-61
2022/04/24 06:56:41;;;;;;;3.27;3.07;;;;;;;;;;4988004;28;20225;-61
2022/04/24 06:59:08;;;;;;;3.83;3.57;;;;;;;;;;4974220;28;20202;-60
2022/04/24 07:01:35;;;;;;;2.33;2.07;;;;;;;;;;4971283;28;20207;-60
2022/04/24 07:04:02;;;;;;;3.33;3.13;;;;;;;;;;4977618;28;20557;-60
2022/04/24 07:06:31;;;;;;;3.57;3.27;;;;;;;;;;4984541;28;20233;-60
2022/04/24 07:08:58;;;;;;;3.40;3.10;;;;;;;;;;4970477;28;20249;-61
2022/04/24 07:11:25;;;;;;;3.87;2.93;;;;;;;;;;4970737;28;20626;-60
2022/04/24 07:13:52;;;;;;;3.43;3.13;;;;;;;;;;4971431;28;20444;-60
2022/04/24 07:16:19;;;;;;;3.87;3.67;;;;;;;;;;4971078;28;20210;-60
2022/04/24 07:18:46;;;;;;;3.70;3.50;;;;;;;;;;4968701;28;20681;-60
2022/04/24 07:21:13;;;;;;;3.30;3.10;;;;;;;;;;4969838;28;20221;-60
2022/04/24 07:23:41;;;;;;;4.23;3.97;;;;;;;;;;4969158;28;20657;-60
2022/04/24 07:26:08;;;;;;;4.30;3.90;;;;;;;;;;4970622;28;20206;-60
2022/04/24 07:28:36;;;;;;;3.73;3.43;;;;;;;;;;4969655;28;20293;-61
2022/04/24 07:31:03;;;;;;;5.93;4.50;;;;;;;;;;4969137;28;20206;-60
2022/04/24 07:33:30;;;;;;;4.93;4.27;;;;;;;;;;4969156;28;20316;-61
2022/04/24 07:35:57;;;;;;;4.30;3.90;;;;;;;;;;4970008;28;20211;-60
2022/04/24 07:38:24;;;;;;;3.47;3.27;;;;;;;;;;4968481;28;20264;-61
2022/04/24 07:40:52;;;;;;;4.80;4.37;;;;;;;;;;4966374;28;20207;-60
2022/04/24 07:43:19;;;;;;;6.37;5.03;;;;;;;;;;4967782;28;20206;-61
2022/04/24 07:45:48;;;;;;;4.47;3.80;;;;;;;;;;4967469;28;20207;-62
2022/04/24 07:48:15;;;;;;;6.73;3.90;;;;;;;;;;4965746;28;20341;-60
2022/04/24 07:50:43;;;;;;;3.83;3.53;;;;;;;;;;4968096;28;20261;-60
2022/04/24 07:53:10;;;;;;;4.13;3.83;;;;;;;;;;4967106;28;20203;-60
2022/04/24 07:55:38;;;;;;;3.03;2.83;;;;;;;;;;4967657;28;20214;-60
2022/04/24 07:58:06;;;;;;;4.40;3.97;;;;;;;;;;4967951;28;20286;-60
2022/04/24 08:00:34;;;;;;;5.13;4.73;;;;;;;;;;4967578;28;20276;-60
2022/04/24 08:03:02;;;;;;;4.90;4.50;;;;;;;;;;4967697;28;20221;-59
2022/04/24 08:05:30;;;;;;;7.47;4.33;;;;;;;;;;4969848;28;20241;-60
2022/04/24 08:07:58;;;;;;;4.70;4.30;;;;;;;;;;4967480;28;20611;-61
2022/04/24 08:10:26;;;;;;;4.67;4.27;;;;;;;;;;4969301;28;20253;-61
2022/04/24 08:12:53;;;;;;;4.93;4.43;;;;;;;;;;4968007;28;20214;-61
2022/04/24 08:15:21;;;;;;;4.37;3.97;;;;;;;;;;4967894;28;20226;-59
2022/04/24 08:17:48;;;;;;;4.80;4.50;;;;;;;;;;4964102;28;20214;-59
2022/04/24 08:20:17;;;;;;;4.23;3.90;;;;;;;;;;4967044;28;20207;-60
2022/04/24 08:22:45;;;;;;;4.93;4.43;;;;;;;;;;4968536;28;20202;-59
2022/04/24 08:25:13;;;;;;;5.03;4.60;;;;;;;;;;4967490;28;20222;-59
2022/04/24 08:27:40;;;;;;;5.17;4.50;;;;;;;;;;4967484;28;20210;-59
2022/04/24 08:30:08;;;;;;;4.57;4.17;;;;;;;;;;4967298;28;20547;-59
2022/04/24 08:32:37;;;;;;;7.50;4.60;;;;;;;;;;4965237;28;20557;-59
2022/04/24 08:35:04;;;;;;;4.73;4.33;;;;;;;;;;4968245;28;20226;-60
2022/04/24 08:37:31;;;;;;;4.63;4.23;;;;;;;;;;4968225;28;20769;-60
2022/04/24 08:39:58;;;;;;;4.20;3.63;;;;;;;;;;4967900;28;20210;-59
2022/04/24 08:42:26;;;;;;;4.37;4.00;;;;;;;;;;4967017;28;20217;-59
2022/04/24 08:44:55;;;;;;;46.73;12.30;;;;;;;;;;4967874;28;20261;-60
2022/04/24 08:47:23;;;;;;;435.43;138.83;;;;;;;;;;4967924;28;20334;-60
2022/04/24 08:49:53;;;;;;;10.37;6.23;;;;;;;;;;4967639;28;20633;-60
2022/04/24 08:52:21;;;;;;;5.47;4.23;;;;;;;;;;4967154;28;20198;-60
2022/04/24 08:54:50;;;;;;;5.50;5.07;;;;;;;;;;4967457;28;20312;-60
2022/04/24 08:57:17;;;;;;;4.23;3.83;;;;;;;;;;4960204;28;20215;-60
2022/04/24 08:59:44;;;;;;;5.63;3.53;;;;;;;;;;4968446;28;20217;-59
2022/04/24 09:02:12;;;;;;;5.33;4.70;;;;;;;;;;4967243;28;20203;-61
2022/04/24 09:04:39;;;;;;;5.67;5.17;;;;;;;;;;4967471;28;20637;-60
2022/04/24 09:07:08;;;;;;;8.73;5.40;;;;;;;;;;4967319;28;20273;-60
2022/04/24 09:09:40;;;;;;;5.57;4.70;;;;;;;;;;4983000;28;20719;-61
2022/04/24 09:12:08;;;;;;;4.47;4.07;;;;;;;;;;4972795;28;20210;-61
2022/04/24 09:14:35;;;;;;;6.00;4.43;;;;;;;;;;4972119;28;20245;-61
2022/04/24 09:17:05;;;;;;;5.33;4.83;;;;;;;;;;4979075;28;20296;-61
2022/04/24 09:19:32;;;;;;;5.23;4.73;;;;;;;;;;4985069;28;20233;-61
2022/04/24 09:22:02;;;;;;;4.73;4.27;;;;;;;;;;4974615;28;20214;-61
2022/04/24 09:24:39;;;;;;;4.83;4.53;;;;;;;;;;4969090;28;20213;-60
2022/04/24 09:27:06;;;;;;;5.07;4.67;;;;;;;;;;4973041;28;20304;-61
2022/04/24 09:29:33;;;;;;;5.97;5.45;;;;;;;;;;4970392;28;20265;-61
2022/04/24 09:32:00;;;;;;;5.22;4.78;;;;;;;;;;4981104;28;20208;-61
2022/04/24 09:34:30;;;;;;;5.20;4.63;;;;;;;;;;4971992;28;20233;-61
2022/04/24 09:37:01;;;;;;;5.32;4.93;;;;;;;;;;4979122;28;20332;-61
2022/04/24 09:39:28;;;;;;;5.25;4.63;;;;;;;;;;4981231;28;20216;-61
2022/04/24 09:42:03;;;;;;;5.20;4.70;;;;;;;;;;4971639;28;20206;-61
2022/04/24 09:44:36;;;;;;;8.27;5.07;;;;;;;;;;4979787;28;20739;-60
2022/04/24 09:47:04;;;;;;;5.93;5.07;;;;;;;;;;4970729;28;20210;-61
2022/04/24 09:49:35;;;;;;;5.90;5.40;;;;;;;;;;4972572;28;20214;-60
2022/04/24 09:52:02;;;;;;;5.53;5.00;;;;;;;;;;4981686;28;20250;-60
2022/04/24 09:54:30;;;;;;;5.88;5.20;;;;;;;;;;4979226;28;20328;-60
2022/04/24 09:56:58;;;;;;;4.90;4.50;;;;;;;;;;4970254;28;20679;-60
2022/04/24 09:59:26;;;;;;;5.70;5.13;;;;;;;;;;4972758;28;20261;-61
2022/04/24 10:01:54;;;;;;;7.40;5.35;;;;;;;;;;4970453;28;21581;-61
2022/04/24 10:04:22;;;;;;;5.82;5.20;;;;;;;;;;4975368;28;20205;-61
2022/04/24 10:06:49;;;;;;;5.47;5.07;;;;;;;;;;4969485;28;20286;-63
2022/04/24 10:09:16;;;;;;;5.30;4.82;;;;;;;;;;4975444;28;20561;-60
2022/04/24 10:11:44;;;;;;;6.55;5.18;;;;;;;;;;4978514;28;20705;-59
2022/04/24 10:14:13;;;;;;;6.10;5.50;;;;;;;;;;4986254;28;20252;-59
2022/04/24 10:16:59;;;;;;;9.50;5.60;;;;;;;;;;4986702;28;20210;-59
2022/04/24 10:19:33;;;;;;;6.78;4.90;;;;;;;;;;4972495;28;20206;-59
2022/04/24 10:22:04;;;;;;;5.45;5.00;;;;;;;;;;4975776;28;20698;-62
2022/04/24 10:24:39;;;;;;;6.35;5.75;;;;;;;;;;4986383;28;20642;-63
2022/04/24 10:27:07;;;;;;;6.10;5.18;;;;;;;;;;4965913;28;20640;-62
2022/04/24 10:29:34;;;;;;;6.68;5.97;;;;;;;;;;4972897;28;20307;-62
2022/04/24 10:32:03;;;;;;;6.15;5.65;;;;;;;;;;4969627;28;20214;-60
2022/04/24 10:34:39;;;;;;;5.50;4.93;;;;;;;;;;4970088;28;20241;-61
2022/04/24 10:37:06;;;;;;;6.70;5.65;;;;;;;;;;4972354;28;20292;-61
2022/04/24 10:39:34;;;;;;;6.47;5.85;;;;;;;;;;4972474;28;20292;-61
2022/04/24 10:42:02;;;;;;;5.05;4.70;;;;;;;;;;4972376;28;20214;-60
2022/04/24 10:44:31;;;;;;;5.88;5.38;;;;;;;;;;4981017;28;20228;-60
2022/04/24 10:46:59;;;;;;;8.05;5.65;;;;;;;;;;4968305;28;20297;-59
2022/04/24 10:49:35;;;;;;;8.05;6.93;;;;;;;;;;4980937;28;20243;-60
2022/04/24 10:52:03;;;;;;;6.10;5.53;;;;;;;;;;4971013;28;20234;-58
2022/04/24 10:54:34;;;;;;;6.68;5.80;;;;;;;;;;4972929;28;20736;-63
2022/04/24 10:57:01;;;;;;;7.15;6.07;;;;;;;;;;4971174;28;20268;-59
2022/04/24 10:59:29;;;;;;;13.10;7.82;;;;;;;;;;4969563;28;20293;-59
2022/04/24 11:01:58;;;;;;;6.82;6.13;;;;;;;;;;4970481;28;20260;-58
2022/04/24 11:04:26;;;;;;;19.50;11.45;;;;;;;;;;4968579;28;20211;-59
2022/04/24 11:06:55;;;;;;;12.55;9.77;;;;;;;;;;4973755;28;20230;-59
2022/04/24 11:09:22;;;;;;;6.65;6.05;;;;;;;;;;4963300;28;20296;-59
2022/04/24 11:11:49;;;;;;;11.80;7.18;;;;;;;;;;4959665;28;20198;-59
2022/04/24 11:14:20;;;;;;;6.85;5.72;;;;;;;;;;4963160;28;20225;-61
2022/04/24 11:16:49;;;;;;;7.05;5.50;;;;;;;;;;4963920;28;20209;-60
2022/04/24 11:19:20;;;;;;;6.30;5.47;;;;;;;;;;4961011;28;20258;-63
2022/04/24 11:21:47;;;;;;;5.10;4.70;;;;;;;;;;4961278;28;21012;-60
2022/04/24 11:24:18;;;;;;;7.15;5.55;;;;;;;;;;4958967;28;20266;-60
2022/04/24 11:26:48;;;;;;;5.47;5.03;;;;;;;;;;4959412;28;20211;-59
2022/04/24 11:29:15;;;;;;;6.22;5.68;;;;;;;;;;4959053;28;20214;-60
2022/04/24 11:31:48;;;;;;;6.32;5.35;;;;;;;;;;4963155;28;20206;-61
2022/04/24 11:34:17;;;;;;;8.45;6.35;;;;;;;;;;4962537;28;20302;-59
2022/04/24 11:36:44;;;;;;;5.70;4.55;;;;;;;;;;4961805;28;20575;-59
2022/04/24 11:39:12;;;;;;;6.00;5.40;;;;;;;;;;4961191;28;20757;-60
2022/04/24 11:41:43;;;;;;;4.10;3.80;;;;;;;;;;4961972;28;20240;-59
2022/04/24 11:52:33;;;;;;;4.93;4.53;;;;;;;;;;4926307;29;20380;-60
2022/04/24 11:55:00;;;;;;;4.28;3.97;;;;;;;;;;4947750;28;20223;-59
2022/04/24 11:57:29;;;;;;;5.15;4.65;;;;;;;;;;4962704;28;20241;-59
2022/04/24 11:59:56;;;;;;;6.60;4.80;;;;;;;;;;4961066;28;20206;-60
2022/04/24 12:02:27;;;;;;;4.93;4.28;;;;;;;;;;4960925;28;20265;-59
2022/04/24 12:04:54;;;;;;;4.57;4.25;;;;;;;;;;4963765;28;20281;-60
2022/04/24 12:07:22;;;;;;;5.20;4.53;;;;;;;;;;4960477;28;20707;-60
2022/04/24 12:09:58;;;;;;;4.95;4.50;;;;;;;;;;4958987;28;20238;-60
2022/04/24 12:12:25;;;;;;;4.35;3.95;;;;;;;;;;4957323;28;20210;-59
2022/04/24 12:14:53;;;;;;;4.28;3.90;;;;;;;;;;4958762;28;20234;-59
2022/04/24 12:17:21;;;;;;;5.10;4.65;;;;;;;;;;4943441;28;20199;-59
2022/04/24 12:19:52;;;;;;;4.50;4.18;;;;;;;;;;4960753;28;20206;-59
2022/04/24 12:22:27;;;;;;;5.97;5.00;;;;;;;;;;4960525;28;20222;-59
2022/04/24 12:24:54;;;;;;;3.47;3.00;;;;;;;;;;4960272;28;20524;-59
2022/04/24 12:27:21;;;;;;;5.03;4.53;;;;;;;;;;4960272;28;20218;-59
2022/04/24 12:29:49;;;;;;;4.95;4.45;;;;;;;;;;4964866;28;20593;-61
2022/04/24 12:32:18;;;;;;;5.40;5.00;;;;;;;;;;4967990;28;20213;-60
2022/04/24 12:34:46;;;;;;;4.40;4.07;;;;;;;;;;4969623;28;20214;-60
2022/04/24 12:37:14;;;;;;;5.82;5.32;;;;;;;;;;4969810;28;20217;-61
2022/04/24 12:39:41;;;;;;;5.10;4.70;;;;;;;;;;4962380;28;20213;-59
2022/04/24 12:42:17;;;;;;;5.40;3.70;;;;;;;;;;4964996;28;20296;-59
2022/04/24 12:44:44;;;;;;;7.13;5.68;;;;;;;;;;4967782;28;20241;-60
2022/04/24 12:47:11;;;;;;;7.07;5.45;;;;;;;;;;4967884;28;20269;-59
2022/04/24 12:49:40;;;;;;;9.88;8.05;;;;;;;;;;4966436;28;20219;-60
2022/04/24 12:52:08;;;;;;;4.95;4.55;;;;;;;;;;4967282;28;20210;-60
2022/04/24 12:54:35;;;;;;;5.30;4.85;;;;;;;;;;4964292;28;20752;-59
2022/04/24 12:57:02;;;;;;;6.05;5.03;;;;;;;;;;4968304;28;20222;-60
2022/04/24 12:59:29;;;;;;;5.03;4.53;;;;;;;;;;4967848;28;20612;-60
2022/04/24 13:01:57;;;;;;;4.75;4.35;;;;;;;;;;4967534;28;20301;-60
2022/04/24 13:04:24;;;;;;;4.88;4.47;;;;;;;;;;4967720;28;20450;-60
2022/04/24 13:06:53;;;;;;;3.83;3.53;;;;;;;;;;4967800;28;20230;-60
2022/04/24 13:09:20;;;;;;;4.63;4.28;;;;;;;;;;4967757;28;20815;-61
2022/04/24 13:11:47;;;;;;;7.40;5.53;;;;;;;;;;4965716;28;20261;-61
2022/04/24 13:14:14;;;;;;;3.65;3.40;;;;;;;;;;4968086;28;20226;-60
2022/04/24 13:19:26;;;;;;;5.15;4.75;;;;;;;;;;4966011;28;20252;-62
2022/04/24 13:21:54;;;;;;;4.45;4.15;;;;;;;;;;4966986;28;20881;-60
2022/04/24 13:24:21;;;;;;;5.80;5.20;;;;;;;;;;4967796;28;20202;-61
2022/04/24 13:26:49;;;;;;;6.03;5.32;;;;;;;;;;4967608;28;20214;-61
2022/04/24 13:29:16;;;;;;;7.35;3.50;;;;;;;;;;4967952;28;20206;-61
2022/04/24 13:31:47;;;;;;;6.00;4.78;;;;;;;;;;4967250;28;20700;-61
2022/04/24 13:34:14;;;;;;;5.95;5.45;;;;;;;;;;4954198;28;20214;-59
2022/04/24 13:36:41;;;;;;;5.63;5.13;;;;;;;;;;4965266;28;20221;-60
2022/04/24 13:39:10;;;;;;;3.63;3.28;;;;;;;;;;4967246;28;20811;-60
2022/04/24 13:41:37;;;;;;;5.18;4.75;;;;;;;;;;4966317;28;20779;-60
2022/04/24 13:44:05;;;;;;;5.65;5.13;;;;;;;;;;4959456;28;20293;-60
2022/04/24 13:46:32;;;;;;;5.97;5.47;;;;;;;;;;4970974;28;20210;-60
2022/04/24 13:48:59;;;;;;;6.55;5.13;;;;;;;;;;4970433;28;20669;-60
2022/04/24 13:51:26;;;;;;;4.65;4.25;;;;;;;;;;4970995;28;20211;-60
2022/04/24 13:53:54;;;;;;;8.75;5.82;;;;;;;;;;4971089;28;20218;-60
2022/04/24 13:56:22;;;;;;;5.43;5.00;;;;;;;;;;4971079;28;20242;-60
2022/04/24 13:58:50;;;;;;;5.50;4.82;;;;;;;;;;4970419;28;20335;-60
2022/04/24 14:01:19;;;;;;;5.00;4.55;;;;;;;;;;4970602;28;20740;-60
2022/04/24 14:03:46;;;;;;;6.93;5.80;;;;;;;;;;4970057;28;20221;-61
2022/04/24 14:06:13;;;;;;;5.18;4.53;;;;;;;;;;4969182;28;20338;-60
2022/04/24 14:08:40;;;;;;;4.05;3.70;;;;;;;;;;4970730;28;20269;-60
2022/04/24 14:11:09;;;;;;;6.40;5.30;;;;;;;;;;4969774;28;20214;-60
2022/04/24 14:13:37;;;;;;;4.27;3.57;;;;;;;;;;4970508;28;20242;-60
2022/04/24 14:16:05;;;;;;;6.10;4.83;;;;;;;;;;4970681;28;20230;-61
2022/04/24 14:18:32;;;;;;;5.50;4.75;;;;;;;;;;4969333;28;20206;-60
2022/04/24 14:21:00;;;;;;;5.20;4.30;;;;;;;;;;4965959;28;20293;-60
2022/04/24 14:23:27;;;;;;;4.47;4.07;;;;;;;;;;4969991;28;20214;-60
2022/04/24 14:25:54;;;;;;;6.43;4.87;;;;;;;;;;4969140;28;20202;-61
2022/04/24 14:28:21;;;;;;;6.68;5.60;;;;;;;;;;4969447;28;20207;-60
2022/04/24 14:30:49;;;;;;;5.00;4.63;;;;;;;;;;4968707;28;20238;-60
2022/04/24 14:33:17;;;;;;;6.17;5.67;;;;;;;;;;4970546;28;20210;-61
2022/04/24 14:35:44;;;;;;;6.67;5.43;;;;;;;;;;4966830;28;20593;-61
2022/04/24 14:38:12;;;;;;;5.43;4.90;;;;;;;;;;4968676;28;20265;-61
2022/04/24 14:40:39;;;;;;;5.82;5.10;;;;;;;;;;4970893;28;20207;-61
2022/04/24 14:43:06;;;;;;;4.00;3.65;;;;;;;;;;4970353;28;20210;-61
2022/04/24 14:56:34;;;;;;;5.23;4.83;;;;;;;;;;4968918;28;20708;-60
2022/04/24 14:59:01;;;;;;;3.03;2.73;;;;;;;;;;4970007;28;20214;-60
2022/04/24 15:01:29;;;;;;;3.07;2.80;;;;;;;;;;4964835;28;20210;-60
2022/04/24 15:03:57;;;;;;;4.35;4.03;;;;;;;;;;4958487;28;20210;-62
2022/04/24 15:06:24;;;;;;;6.50;5.47;;;;;;;;;;4959004;28;20286;-60
2022/04/24 15:08:51;;;;;;;3.93;3.53;;;;;;;;;;4970313;28;20744;-60